createdAt,value
2023-03-31T00:03:03.298Z,96385.19
2023-03-31T00:07:06.274Z,96374.25
2023-03-31T00:11:09.570Z,96370.00
2023-03-31T00:15:11.829Z,96371.66
2023-03-31T00:19:18.410Z,96374.31
2023-03-31T00:23:18.857Z,96358.91
2023-03-31T00:27:19.787Z,96347.72
2023-03-31T00:31:21.053Z,96350.88
2023-03-31T00:35:24.301Z,96338.38
2023-03-31T00:39:25.604Z,96323.19
2023-03-31T00:43:36.325Z,96336.00
2023-03-31T00:47:39.261Z,96332.81
2023-03-31T00:51:44.230Z,96327.25
2023-03-31T00:55:51.598Z,96312.31
2023-03-31T00:59:57.171Z,96298.72
2023-03-31T01:03:59.888Z,96313.69
2023-03-31T01:08:05.932Z,96317.13
2023-03-31T01:12:13.653Z,96317.13
2023-03-31T01:16:14.505Z,96302.97
2023-03-31T01:20:32.027Z,96308.28
2023-03-31T01:25:39.092Z,96293.88
2023-03-31T01:30:13.294Z,96284.88
2023-03-31T01:35:19.842Z,96280.09
2023-03-31T01:40:09.881Z,96269.41
2023-03-31T01:44:25.471Z,96271.41
2023-03-31T01:48:39.735Z,96270.28
2023-03-31T01:52:50.710Z,96265.53
2023-03-31T01:57:05.838Z,96264.47
2023-03-31T02:01:20.086Z,96253.75
2023-03-31T02:05:26.187Z,96239.91
2023-03-31T02:09:34.374Z,96234.13
2023-03-31T02:13:42.176Z,96226.16
2023-03-31T02:17:47.520Z,96219.22
2023-03-31T02:21:53.052Z,96209.69
2023-03-31T02:26:02.543Z,96210.66
2023-03-31T02:30:09.723Z,96204.19
2023-03-31T02:34:10.467Z,96202.16
2023-03-31T02:38:11.972Z,96197.44
2023-03-31T02:42:15.553Z,96175.38
2023-03-31T02:46:18.692Z,96186.84
2023-03-31T02:50:19.627Z,96178.63
2023-03-31T02:54:46.647Z,96184.75
2023-03-31T02:59:09.214Z,96176.31
2023-03-31T03:03:32.183Z,96161.84
2023-03-31T03:07:45.965Z,96171.97
2023-03-31T03:11:57.680Z,96168.56
2023-03-31T03:16:07.087Z,96157.16
2023-03-31T03:20:12.843Z,96146.72
2023-03-31T03:24:15.903Z,96147.03
2023-03-31T03:28:16.236Z,96133.19
2023-03-31T03:32:17.268Z,96122.31
2023-03-31T03:36:20.728Z,96115.91
2023-03-31T03:40:21.678Z,96103.94
2023-03-31T03:44:24.899Z,96098.63
2023-03-31T03:48:26.993Z,96087.97
2023-03-31T03:52:30.048Z,96081.63
2023-03-31T03:56:30.665Z,96079.22
2023-03-31T04:00:31.119Z,96075.75
2023-03-31T04:04:31.543Z,96060.59
2023-03-31T04:08:38.340Z,96046.22
2023-03-31T04:12:39.269Z,96045.44
2023-03-31T04:16:41.033Z,96031.56
2023-03-31T04:20:41.475Z,96029.97
2023-03-31T04:24:46.188Z,96016.13
2023-03-31T04:28:50.974Z,96013.47
2023-03-31T04:32:53.598Z,96023.59
2023-03-31T04:36:56.426Z,96028.91
2023-03-31T04:41:00.017Z,96011.34
2023-03-31T04:45:03.047Z,96003.34
2023-03-31T04:49:06.473Z,95999.69
2023-03-31T04:53:07.893Z,95991.13
2023-03-31T04:57:11.638Z,95993.22
2023-03-31T05:01:13.879Z,95980.19
2023-03-31T05:05:16.185Z,95966.88
2023-03-31T05:09:16.600Z,95973.47
2023-03-31T05:13:19.606Z,95956.34
2023-03-31T05:17:20.776Z,95947.88
2023-03-31T05:21:23.676Z,95943.63
2023-03-31T05:25:24.469Z,95930.84
2023-03-31T05:29:29.999Z,95930.84
2023-03-31T05:33:31.194Z,95917.75
2023-03-31T05:37:31.875Z,95905.69
2023-03-31T05:41:33.129Z,95884.84
2023-03-31T05:45:36.008Z,95876.31
2023-03-31T05:49:36.734Z,95883.75
2023-03-31T05:53:37.642Z,95878.47
2023-03-31T05:57:38.092Z,95867.28
2023-03-31T06:01:41.787Z,95872.41
2023-03-31T06:05:42.877Z,95870.28
2023-03-31T06:09:44.571Z,95868.75
2023-03-31T06:13:45.937Z,95850.81
2023-03-31T06:17:51.485Z,95846.22
2023-03-31T06:21:52.895Z,95831.53
2023-03-31T06:25:54.444Z,95819.56
2023-03-31T06:29:55.127Z,95825.50
2023-03-31T06:33:58.958Z,95829.75
2023-03-31T06:38:00.194Z,95811.19
2023-03-31T06:42:01.357Z,95806.28
2023-03-31T06:46:02.301Z,95804.56
2023-03-31T06:50:05.489Z,95812.03
2023-03-31T06:54:06.513Z,95812.34
2023-03-31T06:58:07.903Z,95813.19
2023-03-31T07:02:08.395Z,95815.19
2023-03-31T07:06:12.236Z,95821.66
2023-03-31T07:10:13.357Z,95830.06
2023-03-31T07:14:15.164Z,95831.56
2023-03-31T07:18:16.015Z,95826.50
2023-03-31T07:22:19.657Z,95829.69
2023-03-31T07:26:20.181Z,95825.69
2023-03-31T07:30:23.364Z,95837.81
2023-03-31T07:34:23.775Z,95812.25
2023-03-31T07:38:26.939Z,95792.06
2023-03-31T07:42:29.105Z,95811.06
2023-03-31T07:46:33.537Z,95799.91
2023-03-31T07:50:34.397Z,95802.41
2023-03-31T07:54:40.462Z,95799.53
2023-03-31T07:58:41.316Z,95784.56
2023-03-31T08:02:43.422Z,95784.31
2023-03-31T08:06:46.487Z,95771.97
2023-03-31T08:10:52.065Z,95763.56
2023-03-31T08:14:54.420Z,95756.31
2023-03-31T08:18:55.205Z,95745.25
2023-03-31T08:22:55.773Z,95739.91
2023-03-31T08:26:59.437Z,95739.16
2023-03-31T08:31:05.530Z,95736.38
2023-03-31T08:35:06.774Z,95730.78
2023-03-31T08:39:07.822Z,95723.94
2023-03-31T08:43:21.100Z,95738.78
2023-03-31T08:47:27.317Z,95717.97
2023-03-31T08:51:32.443Z,95733.84
2023-03-31T08:55:40.291Z,95735.50
2023-03-31T08:59:44.765Z,95736.97
2023-03-31T09:04:10.264Z,95734.34
2023-03-31T09:08:34.039Z,95733.22
2023-03-31T09:12:47.301Z,95704.19
2023-03-31T09:16:59.710Z,95688.16
2023-03-31T09:21:11.465Z,95563.97
2023-03-31T09:25:20.183Z,95530.75
2023-03-31T09:29:27.485Z,95538.09
2023-03-31T09:33:34.719Z,95566.69
2023-03-31T09:37:36.399Z,95591.88
2023-03-31T09:41:37.179Z,95599.59
2023-03-31T09:45:41.545Z,95614.09
2023-03-31T09:49:54.156Z,95609.09
2023-03-31T09:54:01.724Z,95586.38
2023-03-31T09:58:04.831Z,95596.56
2023-03-31T10:02:18.324Z,95604.09
2023-03-31T10:06:24.096Z,95590.69
2023-03-31T10:10:34.285Z,95601.34
2023-03-31T10:14:45.469Z,95598.94
2023-03-31T10:18:47.636Z,95577.50
2023-03-31T10:22:53.801Z,95571.56
2023-03-31T10:27:00.474Z,95556.19
2023-03-31T10:31:18.162Z,95556.69
2023-03-31T10:35:29.560Z,95531.84
2023-03-31T10:39:36.041Z,95545.53
2023-03-31T10:43:47.120Z,95528.50
2023-03-31T10:47:58.317Z,95530.91
2023-03-31T10:52:02.811Z,95538.53
2023-03-31T10:56:35.296Z,95531.81
2023-03-31T11:00:47.424Z,95529.75
2023-03-31T11:05:01.857Z,95517.22
2023-03-31T11:09:23.891Z,95509.34
2023-03-31T11:13:38.323Z,95511.81
2023-03-31T11:18:01.949Z,95503.91
2023-03-31T11:22:12.918Z,95492.91
2023-03-31T11:26:30.496Z,95471.34
2023-03-31T11:30:43.235Z,95459.63
2023-03-31T11:35:01.259Z,95457.75
2023-03-31T11:39:28.061Z,95435.88
2023-03-31T11:43:38.460Z,95446.66
2023-03-31T11:47:48.501Z,95430.16
2023-03-31T11:51:58.762Z,95444.06
2023-03-31T11:56:05.614Z,95424.00
2023-03-31T12:00:21.153Z,95451.72
2023-03-31T12:04:37.548Z,95427.94
2023-03-31T12:08:44.916Z,95410.81
2023-03-31T12:12:53.525Z,95409.13
2023-03-31T12:16:59.611Z,95405.41
2023-03-31T12:21:07.716Z,95414.13
2023-03-31T12:25:15.298Z,95417.31
2023-03-31T12:29:28.713Z,95419.22
2023-03-31T12:33:36.901Z,95424.44
2023-03-31T12:38:16.516Z,95450.56
2023-03-31T12:42:45.405Z,95459.81
2023-03-31T12:47:23.998Z,95451.66
2023-03-31T12:51:47.066Z,95454.50
2023-03-31T12:55:52.600Z,95459.00
2023-03-31T13:00:27.097Z,95453.38
2023-03-31T13:04:31.089Z,95444.66
2023-03-31T13:08:57.824Z,95429.59
2023-03-31T13:13:19.900Z,95419.75
2023-03-31T13:17:34.421Z,95415.75
2023-03-31T13:21:54.773Z,95403.25
2023-03-31T13:25:56.433Z,95387.06
2023-03-31T13:29:59.404Z,95376.63
2023-03-31T13:34:02.487Z,95395.72
2023-03-31T13:38:23.464Z,95400.03
2023-03-31T13:42:58.654Z,95424.41
2023-03-31T13:47:56.734Z,95491.75
2023-03-31T13:52:01.534Z,95548.31
2023-03-31T13:56:48.235Z,95509.38
2023-03-31T14:01:09.861Z,95447.91
2023-03-31T14:05:31.766Z,95436.50
2023-03-31T14:09:41.442Z,95439.16
2023-03-31T14:13:41.874Z,95441.72
2023-03-31T14:17:45.213Z,95439.56
2023-03-31T14:21:58.417Z,95435.69
2023-03-31T14:26:10.392Z,95409.94
2023-03-31T14:30:22.869Z,95419.69
2023-03-31T14:35:01.305Z,95410.66
2023-03-31T14:39:16.241Z,95394.41
2023-03-31T14:43:25.622Z,95377.44
2023-03-31T14:47:29.401Z,95380.13
2023-03-31T14:51:34.252Z,95379.53
2023-03-31T14:55:57.271Z,95385.53
2023-03-31T14:59:59.190Z,95393.19
2023-03-31T15:03:59.820Z,95395.13
2023-03-31T15:08:03.053Z,95375.13
2023-03-31T15:12:11.743Z,95380.47
2023-03-31T15:16:35.747Z,95384.19
2023-03-31T15:20:43.041Z,95383.56
2023-03-31T15:24:43.658Z,95391.94
2023-03-31T15:28:58.091Z,95374.59
2023-03-31T15:33:11.731Z,95373.13
2023-03-31T15:37:28.160Z,95369.69
2023-03-31T15:41:34.250Z,95369.69
2023-03-31T15:45:59.709Z,95369.59
2023-03-31T15:50:07.824Z,95366.28
2023-03-31T15:54:48.139Z,95378.78
2023-03-31T15:59:00.181Z,95377.84
2023-03-31T16:03:05.849Z,95372.47
2023-03-31T16:07:12.608Z,95375.38
2023-03-31T16:11:16.943Z,95377.53
2023-03-31T16:15:25.863Z,95371.22
2023-03-31T16:19:34.392Z,95366.31
2023-03-31T16:23:41.370Z,95356.38
2023-03-31T16:27:49.955Z,95338.97
2023-03-31T16:31:51.176Z,95346.09
2023-03-31T16:35:59.127Z,95342.47
2023-03-31T16:40:00.902Z,95342.84
2023-03-31T16:44:01.790Z,95334.47
2023-03-31T16:48:15.090Z,95342.72
2023-03-31T16:52:19.939Z,95345.13
2023-03-31T16:56:20.544Z,95359.69
2023-03-31T17:00:22.592Z,95355.38
2023-03-31T17:04:25.693Z,95347.19
2023-03-31T17:08:31.635Z,95358.94
2023-03-31T17:12:32.349Z,95347.94
2023-03-31T17:16:40.567Z,95366.66
2023-03-31T17:20:48.743Z,95351.03
2023-03-31T17:24:58.681Z,95370.22
2023-03-31T17:29:00.894Z,95365.66
2023-03-31T17:33:01.929Z,95356.78
2023-03-31T17:37:03.069Z,95378.13
2023-03-31T17:41:10.772Z,95385.56
2023-03-31T17:45:14.421Z,95402.13
2023-03-31T17:49:14.838Z,95412.31
2023-03-31T17:53:15.325Z,95437.91
2023-03-31T17:57:18.941Z,95428.75
2023-03-31T18:01:19.743Z,95416.50
2023-03-31T18:05:20.651Z,95424.06
2023-03-31T18:09:21.260Z,95422.28
2023-03-31T18:13:24.650Z,95423.84
2023-03-31T18:17:25.267Z,95430.25
2023-03-31T18:21:26.435Z,95424.72
2023-03-31T18:25:27.707Z,95421.06
2023-03-31T18:29:31.545Z,95411.63
2023-03-31T18:33:32.294Z,95423.44
2023-03-31T18:37:34.100Z,95419.53
2023-03-31T18:41:34.845Z,95429.66
2023-03-31T18:45:38.735Z,95439.84
2023-03-31T18:49:39.470Z,95431.66
2023-03-31T18:53:40.993Z,95441.72
2023-03-31T18:57:42.418Z,95443.47
2023-03-31T19:01:47.201Z,95455.00
2023-03-31T19:05:50.082Z,95454.41
2023-03-31T19:09:50.536Z,95464.13
2023-03-31T19:13:52.227Z,95455.00
2023-03-31T19:17:56.991Z,95474.75
2023-03-31T19:21:57.763Z,95463.59
2023-03-31T19:26:00.831Z,95465.56
2023-03-31T19:30:02.070Z,95465.81
2023-03-31T19:34:11.286Z,95466.72
2023-03-31T19:38:12.250Z,95460.13
2023-03-31T19:42:15.296Z,95467.41
2023-03-31T19:46:15.890Z,95464.44
2023-03-31T19:50:19.259Z,95480.66
2023-03-31T19:54:21.622Z,95479.34
2023-03-31T19:58:22.771Z,95474.63
2023-03-31T20:02:24.410Z,95476.09
2023-03-31T20:06:30.772Z,95466.00
2023-03-31T20:10:34.149Z,95466.81
2023-03-31T20:14:35.447Z,95456.50
2023-03-31T20:18:37.661Z,95464.66
2023-03-31T20:22:42.301Z,95468.47
2023-03-31T20:26:42.907Z,95455.81
2023-03-31T20:30:43.448Z,95462.00
2023-03-31T20:34:44.476Z,95468.19
2023-03-31T20:38:51.444Z,95455.72
2023-03-31T20:42:52.394Z,95472.88
2023-03-31T20:46:52.924Z,95481.88
2023-03-31T20:50:54.425Z,95484.31
2023-03-31T20:55:00.145Z,95485.38
2023-03-31T20:59:02.727Z,95485.03
2023-03-31T21:03:03.659Z,95490.56
2023-03-31T21:07:04.475Z,95507.75
2023-03-31T21:11:08.029Z,95486.47
2023-03-31T21:15:10.115Z,95496.66
2023-03-31T21:19:10.784Z,95497.56
2023-03-31T21:23:11.371Z,95498.66
2023-03-31T21:27:14.791Z,95491.94
2023-03-31T21:31:18.208Z,95495.44
2023-03-31T21:35:20.239Z,95485.34
2023-03-31T21:39:21.611Z,95488.34
2023-03-31T21:43:26.193Z,95486.63
2023-03-31T21:47:26.968Z,95483.03
2023-03-31T21:51:28.855Z,95487.28
2023-03-31T21:55:31.857Z,95494.03
2023-03-31T21:59:35.682Z,95495.97
2023-03-31T22:03:38.751Z,95498.03
2023-03-31T22:07:39.843Z,95491.66
2023-03-31T22:11:40.999Z,95493.44
2023-03-31T22:15:47.291Z,95490.06
2023-03-31T22:19:48.277Z,95499.63
2023-03-31T22:23:49.137Z,95506.91
2023-03-31T22:27:49.806Z,95497.09
2023-03-31T22:31:52.919Z,95497.56
2023-03-31T22:35:53.446Z,95488.09
2023-03-31T22:39:53.789Z,95493.97
2023-03-31T22:43:55.131Z,95498.44
2023-03-31T22:47:59.334Z,95499.00
2023-03-31T22:52:00.268Z,95493.66
2023-03-31T22:56:06.709Z,95483.66
2023-03-31T23:00:09.667Z,95488.00
2023-03-31T23:04:13.068Z,95484.09
2023-03-31T23:08:13.444Z,95487.13
2023-03-31T23:12:14.005Z,95481.66
2023-03-31T23:16:20.099Z,95478.94
2023-03-31T23:20:23.594Z,95475.84
2023-03-31T23:24:25.278Z,95488.41
2023-03-31T23:28:26.508Z,95494.72
2023-03-31T23:32:26.983Z,95492.97
2023-03-31T23:36:32.121Z,95494.59
2023-03-31T23:40:32.561Z,95493.16
2023-03-31T23:44:33.288Z,95488.78
2023-03-31T23:48:34.331Z,95480.28
2023-03-31T23:52:38.263Z,95486.75
2023-03-31T23:56:39.324Z,95489.97
